Nashville, TN (37204)

6:31 AM CDT on October 02, 2014 (GMT -0500)
Radnor Lake | Change Station
CLOSE
Current Station
Personal Weather Station
Location: Nashville, TN
Elevation: 866 ft
Nearby Weather Stations

Elev 866 ft 36.07 °N, 86.80 °W | Updated 55 seconds ago

Partly Cloudy
Partly Cloudy
69.4 °F
Feels Like 69.4 °F
N
0.7
Wind Variable Wind from East
Gusts 1.6 mph

Today
High -- | Low -- °F
--% Chance of Precip.
Yesterday
High -- | Low -- °F
Precip. -- in
6:43 AM 6:29 PM
First Quarter, 58% visible
Pressure 30.00 in
Visibility 10.0 miles
Clouds Scattered Clouds 10000 ft
Dew Point 64 °F
Humidity 82%
Rainfall 0.00 in
Snow Depth Not available.
UV 0 out of 12
Pollen 5.40 out of 12
Ozone Good
PM2.5 Moderate
Flu Activity Not available.
METAR KBNA 021053Z 17004KT 10SM SCT100 18/15 A3002 RMK AO2 SLP157 T01780150

More Conditions Fewer Conditions

Pressure 30.00 in
Visibility 10.0 miles
Clouds Scattered Clouds 10000 ft
Dew Point 64 °F
Humidity 82%
Rainfall 0.00 in
Snow Depth Not available.
UV 0 out of 12
Pollen 5.40 out of 12
Ozone Good
PM2.5 Moderate
Flu Activity Not available.
METAR KBNA 021053Z 17004KT 10SM SCT100 18/15 A3002 RMK AO2 SLP157 T01780150

More Conditions Fewer Conditions

10-Day Weather Forecast

Almanac

Astronomy

Oct. 02, 2014 Rise Set
Actual Time 6:43 AM CDT 6:29 PM CDT
Civil Twilight 6:17 AM CDT 6:54 PM CDT
Nautical Twilight 5:47 AM CDT 7:24 PM CDT
Astronomical Twilight 5:17 AM CDT 7:54 PM CDT
Moon 2:25 PM CDT 12:09 AM CDT
Length of Visible Light 12h 37m
Length of Day
11h 46m
Tomorrow will be 2m 15s shorter.
First Quarter, 58% of the Moon is Illuminated
Today
First Quarter
Oct 8
Full
Oct 15
Last Quarter
Oct 23
New
Oct 30
First Quarter

Today's Extremes

State Highs State Lows

Community

WunderPhotos

Upload Photos

1,758,219 photos uploaded!

WunderBlogs® & News

Nearby

Air Quality

  Air Quality AQ Index Pollutant
Yesterday Moderate
OZONE
Yesterday Moderate
PM2.5
Current Moderate
PM2.5
Current Good
OZONE
Thursday Moderate
PM2.5
Thursday Good
OZONE

Snow Depth

Station Depth Elevation
No new snow has been reported.

Earthquake Activity

City Distance Mag. Time & Date
No recent earthquake activity has been reported nearby.
Minimum magnitude displayed is 2.5.

Coastal Water Temperatures

Place Temperature
No Stations Reporting

Nearby Weather Stations